createdAt,value
2018-05-07T00:00:51.244Z,1.80
2018-05-07T00:03:18.863Z,1.80
2018-05-07T00:05:46.515Z,1.92
2018-05-07T00:08:14.275Z,2.03
2018-05-07T00:10:41.931Z,1.83
2018-05-07T00:13:09.591Z,1.80
2018-05-07T00:15:37.242Z,1.80
2018-05-07T00:18:04.974Z,1.85
2018-05-07T00:20:32.712Z,2.17
2018-05-07T00:23:00.342Z,2.05
2018-05-07T00:25:27.942Z,2.20
2018-05-07T00:27:56.577Z,2.00
2018-05-07T00:30:24.276Z,2.03
2018-05-07T00:32:51.926Z,1.90
2018-05-07T00:35:19.574Z,2.47
2018-05-07T00:37:47.971Z,2.22
2018-05-07T00:40:16.353Z,2.47
2018-05-07T00:42:43.975Z,2.27
2018-05-07T00:45:11.573Z,2.15
2018-05-07T00:47:39.206Z,2.70
2018-05-07T00:50:06.811Z,2.45
2018-05-07T00:52:35.419Z,2.35
2018-05-07T00:55:14.867Z,2.40
2018-05-07T00:57:42.513Z,2.75
2018-05-07T01:00:10.111Z,2.47
2018-05-07T01:02:37.728Z,2.40
2018-05-07T01:05:06.127Z,2.40
2018-05-07T01:07:33.727Z,2.90
2018-05-07T01:10:01.356Z,2.20
2018-05-07T01:12:29.726Z,2.95
2018-05-07T01:14:57.367Z,2.77
2018-05-07T01:17:24.975Z,2.65
2018-05-07T01:19:52.624Z,3.12
2018-05-07T01:22:20.262Z,2.80
2018-05-07T01:24:47.896Z,2.50
2018-05-07T01:27:15.493Z,3.20
2018-05-07T01:29:43.903Z,2.97
2018-05-07T01:32:11.514Z,2.72
2018-05-07T01:34:39.145Z,2.83
2018-05-07T01:37:06.756Z,3.05
2018-05-07T01:39:34.421Z,3.28
2018-05-07T01:42:02.036Z,3.25
2018-05-07T01:44:29.655Z,3.22
2018-05-07T01:46:57.299Z,3.10
2018-05-07T01:49:24.915Z,3.45
2018-05-07T01:51:52.543Z,3.60
2018-05-07T01:54:20.152Z,3.35
2018-05-07T01:56:47.799Z,3.60
2018-05-07T01:59:15.387Z,3.60
2018-05-07T02:01:43.027Z,3.67
2018-05-07T02:04:10.638Z,3.53
2018-05-07T02:06:38.265Z,3.45
2018-05-07T02:09:06.676Z,3.60
2018-05-07T02:11:34.459Z,3.53
2018-05-07T02:14:02.112Z,3.83
2018-05-07T02:16:29.717Z,3.83
2018-05-07T02:18:57.350Z,3.83
2018-05-07T02:21:25.702Z,4.25
2018-05-07T02:23:53.327Z,4.03
2018-05-07T02:26:20.920Z,4.12
2018-05-07T02:28:48.574Z,3.85
2018-05-07T02:31:16.241Z,4.05
2018-05-07T02:33:43.826Z,3.93
2018-05-07T02:36:11.450Z,4.07
2018-05-07T02:38:39.085Z,3.90
2018-05-07T02:41:06.704Z,4.15
2018-05-07T02:43:35.125Z,4.32
2018-05-07T02:46:02.736Z,3.75
2018-05-07T02:48:30.369Z,4.57
2018-05-07T02:50:57.960Z,4.03
2018-05-07T02:53:25.613Z,4.97
2018-05-07T02:55:53.224Z,4.12
2018-05-07T02:58:20.846Z,4.30
2018-05-07T03:00:48.459Z,5.07
2018-05-07T03:03:16.087Z,4.55
2018-05-07T03:05:44.467Z,5.05
2018-05-07T03:08:12.104Z,4.37
2018-05-07T03:10:39.704Z,5.03
2018-05-07T03:13:07.339Z,5.18
2018-05-07T03:15:34.948Z,5.28
2018-05-07T03:18:02.595Z,5.20
2018-05-07T03:20:30.216Z,5.60
2018-05-07T03:22:58.621Z,5.28
2018-05-07T03:25:26.216Z,5.62
2018-05-07T03:27:53.849Z,5.15
2018-05-07T03:30:22.223Z,4.40
2018-05-07T03:32:49.851Z,5.47
2018-05-07T03:35:17.446Z,5.13
2018-05-07T03:37:45.074Z,5.70
2018-05-07T03:40:12.676Z,5.57
2018-05-07T03:42:40.319Z,5.65
2018-05-07T03:45:07.936Z,5.28
2018-05-07T03:47:35.619Z,5.50
2018-05-07T03:50:03.267Z,7.65
2018-05-07T03:52:30.895Z,5.77
2018-05-07T03:54:59.259Z,5.55
2018-05-07T03:57:26.882Z,5.55
2018-05-07T03:59:54.539Z,5.70
2018-05-07T04:02:22.919Z,5.37
2018-05-07T04:04:51.307Z,5.67
2018-05-07T04:07:19.829Z,6.75
2018-05-07T04:09:48.372Z,5.90
2018-05-07T04:12:15.978Z,6.78
2018-05-07T04:14:44.362Z,5.50
2018-05-07T04:17:24.455Z,6.55
2018-05-07T04:20:03.839Z,6.63
2018-05-07T04:22:43.379Z,6.72
2018-05-07T04:25:10.990Z,6.32
2018-05-07T04:27:38.603Z,6.55
2018-05-07T04:30:06.248Z,6.73
2018-05-07T04:32:34.626Z,6.20
2018-05-07T04:35:03.071Z,5.00
2018-05-07T04:37:30.670Z,5.57
2018-05-07T04:39:58.300Z,5.07
2018-05-07T04:42:25.897Z,6.53
2018-05-07T04:44:53.528Z,6.25
2018-05-07T04:47:21.119Z,6.37
2018-05-07T04:49:48.759Z,6.68
2018-05-07T04:52:17.130Z,5.93
2018-05-07T04:54:44.764Z,7.10
2018-05-07T04:57:12.367Z,5.37
2018-05-07T04:59:39.992Z,5.97
2018-05-07T05:02:07.661Z,6.57
2018-05-07T05:04:35.314Z,6.35
2018-05-07T05:07:03.771Z,6.97
2018-05-07T05:09:31.363Z,6.25
2018-05-07T05:11:58.970Z,5.27
2018-05-07T05:14:26.594Z,6.30
2018-05-07T05:16:54.190Z,6.47
2018-05-07T05:19:22.608Z,4.93
2018-05-07T05:21:50.218Z,6.95
2018-05-07T05:24:17.863Z,5.90
2018-05-07T05:26:45.511Z,5.53
2018-05-07T05:29:13.903Z,6.57
2018-05-07T05:31:42.284Z,5.55
2018-05-07T05:34:09.960Z,7.32
2018-05-07T05:36:38.317Z,5.95
2018-05-07T05:39:06.849Z,6.90
2018-05-07T05:41:35.335Z,7.03
2018-05-07T05:44:03.818Z,7.10
2018-05-07T05:46:32.193Z,6.47
2018-05-07T05:48:59.825Z,6.65
2018-05-07T05:51:27.419Z,5.72
2018-05-07T05:53:55.055Z,7.47
2018-05-07T05:56:23.468Z,7.20
2018-05-07T05:58:51.826Z,6.45
2018-05-07T06:01:19.427Z,6.43
2018-05-07T06:03:47.114Z,6.95
2018-05-07T06:06:14.741Z,6.30
2018-05-07T06:08:43.178Z,6.03
2018-05-07T06:11:10.831Z,6.37
2018-05-07T06:13:38.444Z,5.45
2018-05-07T06:16:06.090Z,6.78
2018-05-07T06:18:33.757Z,6.35
2018-05-07T06:21:01.405Z,6.55
2018-05-07T06:23:29.763Z,6.12
2018-05-07T06:25:57.415Z,6.60
2018-05-07T06:28:25.007Z,6.30
2018-05-07T06:30:52.711Z,5.75
2018-05-07T06:33:21.119Z,5.70
2018-05-07T06:35:48.787Z,5.20
2018-05-07T06:38:16.391Z,6.22
2018-05-07T06:40:44.043Z,5.40
2018-05-07T06:43:11.656Z,5.57
2018-05-07T06:45:39.348Z,5.90
2018-05-07T06:48:07.743Z,4.60
2018-05-07T06:50:35.379Z,5.15
2018-05-07T06:53:03.000Z,5.10
2018-05-07T06:55:31.387Z,5.00
2018-05-07T06:57:59.759Z,4.68
2018-05-07T07:00:27.419Z,4.53
2018-05-07T07:02:55.202Z,5.32
2018-05-07T07:05:22.763Z,5.05
2018-05-07T07:07:50.399Z,5.30
2018-05-07T07:10:18.050Z,5.12
2018-05-07T07:12:46.403Z,4.87
2018-05-07T07:15:14.046Z,4.40
2018-05-07T07:17:41.651Z,4.50
2018-05-07T07:20:09.295Z,3.40
2018-05-07T07:22:36.894Z,4.07
2018-05-07T07:25:04.519Z,3.65
2018-05-07T07:27:32.127Z,3.83
2018-05-07T07:29:59.803Z,3.80
2018-05-07T07:32:27.400Z,3.40
2018-05-07T07:34:55.038Z,2.65
2018-05-07T07:37:22.636Z,3.08
2018-05-07T07:39:50.271Z,3.03
2018-05-07T07:42:17.863Z,2.97
2018-05-07T07:44:45.507Z,2.30
2018-05-07T07:47:13.161Z,2.70
2018-05-07T07:49:40.795Z,2.17
2018-05-07T07:52:08.391Z,2.20
2018-05-07T07:54:36.058Z,2.17
2018-05-07T07:57:03.723Z,2.58
2018-05-07T07:59:31.984Z,2.78
2018-05-07T08:01:59.588Z,2.28
2018-05-07T08:04:27.227Z,2.00
2018-05-07T08:06:54.820Z,2.57
2018-05-07T08:09:22.447Z,2.25
2018-05-07T08:11:50.083Z,2.20
2018-05-07T08:14:18.457Z,2.53
2018-05-07T08:16:46.104Z,2.05
2018-05-07T08:19:13.719Z,2.10
2018-05-07T08:21:41.350Z,2.13
2018-05-07T08:24:08.947Z,2.05
2018-05-07T08:26:36.611Z,2.12
2018-05-07T08:29:04.248Z,2.00
2018-05-07T08:31:31.870Z,2.10
2018-05-07T08:33:59.503Z,1.70
2018-05-07T08:36:27.156Z,1.70
2018-05-07T08:38:54.754Z,2.05
2018-05-07T08:41:22.391Z,2.20
2018-05-07T08:43:50.004Z,1.90
2018-05-07T08:46:17.655Z,2.20
2018-05-07T08:48:45.257Z,2.00
2018-05-07T08:51:12.913Z,1.83
2018-05-07T08:53:40.527Z,2.00
2018-05-07T08:56:08.155Z,1.92
2018-05-07T08:58:35.764Z,1.90
2018-05-07T09:01:03.391Z,1.77
2018-05-07T09:03:30.996Z,1.85
2018-05-07T09:05:58.637Z,2.10
2018-05-07T09:08:26.255Z,1.87
2018-05-07T09:10:53.893Z,1.83
2018-05-07T09:13:21.484Z,1.50
2018-05-07T09:15:49.117Z,1.52
2018-05-07T09:18:16.731Z,1.52
2018-05-07T09:20:44.366Z,1.67
2018-05-07T09:23:11.979Z,2.00
2018-05-07T09:25:39.600Z,1.90
2018-05-07T09:28:07.970Z,1.62
2018-05-07T09:30:36.548Z,1.80
2018-05-07T09:33:04.161Z,1.80
2018-05-07T09:35:31.803Z,1.77
2018-05-07T09:37:59.399Z,1.55
2018-05-07T09:40:27.786Z,1.50
2018-05-07T09:42:56.231Z,1.90
2018-05-07T09:45:24.567Z,1.67
2018-05-07T09:47:52.933Z,1.65
2018-05-07T09:50:20.561Z,1.70
2018-05-07T09:52:48.160Z,1.67
2018-05-07T09:55:15.783Z,1.73
2018-05-07T09:57:56.008Z,1.90
2018-05-07T10:00:23.649Z,2.00
2018-05-07T10:02:51.259Z,1.60
2018-05-07T10:05:18.900Z,1.80
2018-05-07T10:07:46.503Z,1.45
2018-05-07T10:10:14.172Z,1.70
2018-05-07T10:12:41.780Z,1.42
2018-05-07T10:15:10.172Z,1.60
2018-05-07T10:17:38.539Z,1.30
2018-05-07T10:20:06.232Z,1.20
2018-05-07T10:22:33.850Z,1.48
2018-05-07T10:25:01.450Z,1.27
2018-05-07T10:27:29.079Z,1.25
2018-05-07T10:29:56.863Z,1.30
2018-05-07T10:32:24.326Z,1.30
2018-05-07T10:34:51.927Z,1.40
2018-05-07T10:37:19.559Z,1.40
2018-05-07T10:39:47.155Z,1.30
2018-05-07T10:42:14.783Z,1.12
2018-05-07T10:44:43.135Z,1.40
2018-05-07T10:47:10.775Z,1.23
2018-05-07T10:49:38.371Z,1.00
2018-05-07T10:52:06.027Z,1.37
2018-05-07T10:54:33.643Z,1.30
2018-05-07T10:57:02.080Z,1.30
2018-05-07T10:59:29.675Z,1.17
2018-05-07T11:01:57.303Z,1.40
2018-05-07T11:04:25.659Z,1.40
2018-05-07T11:06:53.306Z,0.93
2018-05-07T11:09:20.915Z,1.60
2018-05-07T11:11:48.545Z,1.37
2018-05-07T11:14:16.134Z,1.37
2018-05-07T11:16:43.762Z,1.40
2018-05-07T11:19:12.129Z,1.30
2018-05-07T11:21:39.759Z,1.40
2018-05-07T11:24:07.371Z,1.30
2018-05-07T11:26:35.008Z,1.20
2018-05-07T11:29:02.612Z,1.30
2018-05-07T11:31:30.235Z,1.20
2018-05-07T11:33:57.839Z,1.48
2018-05-07T11:36:25.466Z,1.30
2018-05-07T11:38:53.820Z,1.60
2018-05-07T11:41:21.461Z,1.50
2018-05-07T11:43:49.083Z,1.30
2018-05-07T11:46:16.715Z,1.30
2018-05-07T11:48:44.304Z,1.40
2018-05-07T11:51:11.928Z,1.20
2018-05-07T11:53:39.527Z,1.20
2018-05-07T11:56:07.191Z,1.37
2018-05-07T11:58:34.787Z,1.10
2018-05-07T12:01:02.474Z,1.20
2018-05-07T12:03:30.062Z,1.15
2018-05-07T12:05:57.704Z,1.30
2018-05-07T12:08:25.299Z,1.15
2018-05-07T12:10:52.938Z,1.25
2018-05-07T12:13:20.566Z,1.27
2018-05-07T12:15:49.001Z,1.30
2018-05-07T12:18:16.620Z,1.35
2018-05-07T12:20:44.207Z,1.15
2018-05-07T12:23:12.666Z,1.00
2018-05-07T12:25:40.233Z,1.15
2018-05-07T12:28:07.871Z,1.20
2018-05-07T12:30:35.459Z,1.23
2018-05-07T12:33:03.103Z,1.30
2018-05-07T12:35:30.703Z,1.40
2018-05-07T12:37:58.326Z,1.10
2018-05-07T12:40:26.706Z,1.12
2018-05-07T12:42:54.328Z,1.02
2018-05-07T12:45:21.922Z,1.10
2018-05-07T12:47:49.559Z,1.50
2018-05-07T12:50:17.157Z,1.20
2018-05-07T12:52:44.796Z,1.27
2018-05-07T12:55:12.395Z,1.13
2018-05-07T12:57:40.023Z,1.23
2018-05-07T13:00:08.398Z,1.30
2018-05-07T13:02:36.035Z,1.03
2018-05-07T13:05:03.672Z,1.30
2018-05-07T13:07:32.095Z,1.12
2018-05-07T13:09:59.692Z,1.00
2018-05-07T13:12:27.328Z,1.35
2018-05-07T13:14:54.919Z,1.30
2018-05-07T13:17:22.563Z,1.10
2018-05-07T13:19:50.188Z,1.10
2018-05-07T13:22:17.834Z,0.90
2018-05-07T13:24:45.523Z,1.00
2018-05-07T13:27:13.106Z,1.00
2018-05-07T13:29:40.738Z,0.90
2018-05-07T13:32:08.379Z,0.80
2018-05-07T13:34:36.735Z,1.00
2018-05-07T13:37:04.416Z,1.10
2018-05-07T13:39:32.054Z,1.17
2018-05-07T13:41:59.695Z,0.90
2018-05-07T13:44:28.055Z,0.98
2018-05-07T13:46:55.682Z,1.10
2018-05-07T13:49:23.316Z,0.90
2018-05-07T13:51:51.731Z,1.00
2018-05-07T13:54:19.336Z,1.10
2018-05-07T13:56:46.976Z,1.10
2018-05-07T13:59:14.590Z,0.93
2018-05-07T14:01:42.220Z,1.12
2018-05-07T14:04:10.591Z,0.90
2018-05-07T14:06:38.283Z,1.00
2018-05-07T14:09:06.647Z,1.05
2018-05-07T14:11:34.345Z,1.10
2018-05-07T14:14:02.721Z,1.15
2018-05-07T14:16:31.128Z,1.00
2018-05-07T14:18:58.734Z,1.30
2018-05-07T14:21:26.332Z,1.08
2018-05-07T14:23:53.958Z,1.00
2018-05-07T14:26:21.576Z,0.90
2018-05-07T14:28:49.215Z,0.98
2018-05-07T14:31:16.806Z,1.00
2018-05-07T14:33:44.439Z,1.00
2018-05-07T14:36:12.787Z,1.02
2018-05-07T14:38:40.436Z,0.90
2018-05-07T14:41:08.038Z,1.05
2018-05-07T14:43:35.690Z,1.00
2018-05-07T14:46:03.312Z,1.00
2018-05-07T14:48:31.736Z,0.82
2018-05-07T14:50:59.323Z,1.00
2018-05-07T14:53:26.954Z,0.93
2018-05-07T14:55:55.447Z,0.90
2018-05-07T14:58:22.990Z,0.90
2018-05-07T15:00:50.598Z,1.08
2018-05-07T15:03:18.221Z,1.00
2018-05-07T15:05:45.823Z,1.08
2018-05-07T15:08:14.216Z,0.93
2018-05-07T15:10:41.824Z,1.00
2018-05-07T15:13:09.450Z,0.80
2018-05-07T15:15:37.214Z,0.90
2018-05-07T15:18:04.803Z,1.00
2018-05-07T15:20:33.167Z,1.00
2018-05-07T15:23:00.847Z,1.10
2018-05-07T15:25:28.469Z,1.00
2018-05-07T15:27:56.147Z,0.90
2018-05-07T15:30:23.775Z,0.77
2018-05-07T15:32:51.409Z,0.90
2018-05-07T15:35:23.411Z,0.93
2018-05-07T15:37:51.048Z,0.90
2018-05-07T15:40:18.707Z,0.98
2018-05-07T15:42:46.355Z,1.00
2018-05-07T15:45:13.973Z,1.00
2018-05-07T15:47:42.491Z,1.08
2018-05-07T15:50:10.087Z,0.80
2018-05-07T15:52:37.731Z,1.00
2018-05-07T15:55:05.370Z,0.80
2018-05-07T15:57:32.991Z,0.95
2018-05-07T16:00:00.583Z,0.88
2018-05-07T16:02:28.211Z,1.10
2018-05-07T16:04:56.588Z,1.10
2018-05-07T16:07:24.243Z,1.00
2018-05-07T16:09:51.896Z,1.20
2018-05-07T16:12:19.504Z,1.12
2018-05-07T16:14:47.242Z,0.90
2018-05-07T16:17:14.870Z,1.00
2018-05-07T16:19:42.523Z,1.10
2018-05-07T16:22:10.224Z,1.03
2018-05-07T16:24:37.791Z,1.10
2018-05-07T16:27:05.383Z,1.00
2018-05-07T16:29:33.012Z,1.10
2018-05-07T16:32:00.600Z,1.20
2018-05-07T16:34:28.999Z,1.20
2018-05-07T16:36:57.355Z,1.10
2018-05-07T16:39:24.985Z,1.00
2018-05-07T16:41:52.616Z,1.17
2018-05-07T16:44:20.264Z,1.00
2018-05-07T16:46:47.876Z,1.20
2018-05-07T16:49:16.297Z,1.20
2018-05-07T16:51:43.915Z,1.13
2018-05-07T16:54:11.588Z,1.20
2018-05-07T16:56:39.174Z,1.05
2018-05-07T16:59:07.583Z,1.00
2018-05-07T17:01:35.297Z,1.10
2018-05-07T17:04:02.843Z,1.10
2018-05-07T17:06:30.442Z,1.10
2018-05-07T17:08:58.063Z,1.10
2018-05-07T17:11:26.420Z,1.12
2018-05-07T17:13:54.056Z,1.10
2018-05-07T17:16:21.660Z,1.23
2018-05-07T17:18:49.308Z,1.30
2018-05-07T17:21:16.952Z,1.23
2018-05-07T17:23:45.352Z,1.03
2018-05-07T17:26:12.964Z,1.20
2018-05-07T17:28:40.591Z,1.40
2018-05-07T17:31:08.181Z,1.20
2018-05-07T17:33:35.863Z,1.02
2018-05-07T17:36:03.470Z,1.20
2018-05-07T17:38:31.145Z,1.00
2018-05-07T17:40:58.755Z,1.10
2018-05-07T17:43:26.391Z,1.20
2018-05-07T17:46:05.886Z,1.20
2018-05-07T17:48:45.413Z,1.17
2018-05-07T17:51:13.799Z,1.17
2018-05-07T17:53:41.458Z,1.10
2018-05-07T17:56:09.062Z,1.13
2018-05-07T17:58:37.467Z,1.10
2018-05-07T18:01:05.820Z,1.20
2018-05-07T18:03:33.459Z,1.17
2018-05-07T18:06:01.168Z,1.12
2018-05-07T18:08:28.724Z,1.17
2018-05-07T18:10:56.453Z,1.30
2018-05-07T18:13:23.984Z,1.30
2018-05-07T18:15:51.623Z,1.17
2018-05-07T18:18:19.286Z,1.17
2018-05-07T18:20:46.975Z,1.40
2018-05-07T18:23:14.573Z,1.35
2018-05-07T18:25:42.204Z,1.17
2018-05-07T18:28:09.827Z,1.10
2018-05-07T18:30:38.247Z,1.17
2018-05-07T18:33:05.843Z,1.37
2018-05-07T18:35:33.475Z,1.20
2018-05-07T18:38:01.852Z,1.35
2018-05-07T18:40:30.264Z,1.25
2018-05-07T18:42:57.868Z,1.30
2018-05-07T18:45:25.503Z,1.25
2018-05-07T18:47:53.883Z,1.17
2018-05-07T18:50:22.287Z,1.40
2018-05-07T18:52:49.908Z,1.20
2018-05-07T18:55:17.588Z,1.50
2018-05-07T18:57:45.200Z,1.42
2018-05-07T19:00:12.827Z,1.40
2018-05-07T19:02:40.426Z,1.27
2018-05-07T19:05:08.052Z,1.33
2018-05-07T19:07:35.643Z,1.37
2018-05-07T19:10:03.271Z,1.23
2018-05-07T19:12:30.866Z,1.20
2018-05-07T19:14:58.505Z,1.20
2018-05-07T19:17:26.894Z,1.37
2018-05-07T19:19:55.481Z,1.20
2018-05-07T19:22:23.936Z,1.50
2018-05-07T19:24:51.581Z,1.25
2018-05-07T19:27:19.287Z,1.20
2018-05-07T19:29:46.950Z,1.42
2018-05-07T19:32:14.560Z,1.37
2018-05-07T19:34:42.969Z,1.30
2018-05-07T19:37:11.327Z,1.20
2018-05-07T19:39:38.955Z,1.37
2018-05-07T19:42:06.547Z,1.30
2018-05-07T19:44:34.170Z,1.33
2018-05-07T19:47:02.531Z,1.30
2018-05-07T19:49:30.196Z,1.48
2018-05-07T19:51:57.795Z,1.40
2018-05-07T19:54:26.190Z,1.40
2018-05-07T19:56:54.595Z,1.30
2018-05-07T19:59:23.016Z,1.30
2018-05-07T20:01:50.721Z,1.50
2018-05-07T20:04:18.424Z,1.48
2018-05-07T20:06:46.067Z,1.30
2018-05-07T20:09:13.662Z,1.40
2018-05-07T20:11:41.294Z,1.40
2018-05-07T20:14:08.903Z,1.30
2018-05-07T20:16:36.543Z,1.48
2018-05-07T20:19:04.140Z,1.15
2018-05-07T20:21:31.774Z,1.45
2018-05-07T20:23:59.375Z,1.50
2018-05-07T20:26:27.007Z,1.40
2018-05-07T20:28:54.758Z,1.30
2018-05-07T20:31:22.429Z,1.45
2018-05-07T20:33:50.903Z,1.48
2018-05-07T20:36:18.593Z,1.40
2018-05-07T20:38:46.967Z,1.35
2018-05-07T20:41:14.641Z,1.30
2018-05-07T20:43:42.235Z,1.48
2018-05-07T20:46:10.631Z,1.50
2018-05-07T20:48:38.991Z,1.60
2018-05-07T20:51:06.614Z,1.20
2018-05-07T20:53:34.206Z,1.45
2018-05-07T20:56:01.846Z,1.50
2018-05-07T20:58:30.203Z,1.40
2018-05-07T21:00:57.842Z,1.50
2018-05-07T21:03:25.436Z,1.52
2018-05-07T21:05:53.086Z,1.50
2018-05-07T21:08:20.715Z,1.50
2018-05-07T21:10:49.108Z,1.45
2018-05-07T21:13:17.481Z,1.20
2018-05-07T21:15:45.107Z,1.55
2018-05-07T21:18:12.713Z,1.40
2018-05-07T21:20:40.347Z,1.50
2018-05-07T21:23:07.947Z,1.30
2018-05-07T21:25:35.582Z,1.60
2018-05-07T21:28:03.186Z,1.58
2018-05-07T21:30:30.810Z,1.52
2018-05-07T21:32:59.171Z,1.40
2018-05-07T21:35:26.799Z,1.42
2018-05-07T21:37:54.399Z,1.50
2018-05-07T21:40:22.048Z,1.42
2018-05-07T21:42:49.689Z,1.48
2018-05-07T21:45:18.089Z,1.50
2018-05-07T21:47:46.459Z,1.30
2018-05-07T21:50:14.099Z,1.30
2018-05-07T21:52:41.700Z,1.60
2018-05-07T21:55:09.323Z,1.37
2018-05-07T21:57:36.951Z,1.50
2018-05-07T22:00:04.580Z,1.50
2018-05-07T22:02:32.204Z,1.40
2018-05-07T22:04:59.790Z,1.55
2018-05-07T22:07:28.212Z,1.40
2018-05-07T22:09:55.807Z,1.40
2018-05-07T22:12:23.473Z,1.37
2018-05-07T22:14:51.069Z,1.33
2018-05-07T22:17:18.707Z,1.70
2018-05-07T22:19:46.945Z,1.30
2018-05-07T22:22:14.578Z,1.40
2018-05-07T22:24:42.184Z,1.50
2018-05-07T22:27:09.923Z,1.30
2018-05-07T22:29:37.544Z,1.40
2018-05-07T22:32:05.985Z,1.30
2018-05-07T22:34:33.560Z,1.30
2018-05-07T22:37:01.192Z,1.30
2018-05-07T22:39:29.560Z,1.48
2018-05-07T22:41:57.183Z,1.30
2018-05-07T22:44:24.776Z,1.70
2018-05-07T22:46:52.419Z,1.42
2018-05-07T22:49:20.023Z,1.20
2018-05-07T22:51:47.658Z,1.58
2018-05-07T22:54:15.270Z,1.55
2018-05-07T22:56:42.890Z,1.40
2018-05-07T22:59:11.259Z,1.60
2018-05-07T23:01:38.887Z,1.55
2018-05-07T23:04:06.508Z,1.70
2018-05-07T23:06:34.138Z,1.23
2018-05-07T23:09:01.732Z,1.60
2018-05-07T23:11:29.359Z,1.70
2018-05-07T23:13:56.972Z,1.70
2018-05-07T23:16:24.599Z,1.67
2018-05-07T23:18:52.196Z,1.67
2018-05-07T23:21:19.848Z,1.70
2018-05-07T23:23:47.444Z,1.60
2018-05-07T23:26:15.072Z,1.50
2018-05-07T23:28:43.427Z,1.70
2018-05-07T23:31:11.062Z,1.85
2018-05-07T23:33:38.671Z,1.70
2018-05-07T23:36:06.345Z,1.73
2018-05-07T23:38:33.942Z,1.60
2018-05-07T23:41:01.580Z,1.60
2018-05-07T23:43:29.165Z,1.60
2018-05-07T23:45:56.772Z,1.55
2018-05-07T23:48:25.177Z,1.60
2018-05-07T23:50:53.551Z,1.65
2018-05-07T23:53:21.947Z,1.75
2018-05-07T23:55:50.320Z,1.50
2018-05-07T23:58:18.003Z,1.70
